Monticello, Louisiana
Current Conditions -  °F | °C
As of 12:53 AM on Wednesday 22 Oct 2014 (Local Time) from KTVR Reporting Station
Clear Clear  
Wind Chill: 59°   Ceiling: Unl
Heat Index: 59°   Visibility: 10mi
Dew Point: 56°   Wind: 5mph
Humidity: 90%   Direction: 60°ENE
Pressure: 30.08"   Gusts: NA
Location:  32.8408°N, 91.231°W
Report Text: KTVR 220553Z AUTO 06004KT 10SM CLR 15/13 A3008 RMK AO2 SLP191 T01500133 10178 20122 402670083 51005
Loading
Personal Weather Stations






























Interactive Weather Map
Tropical Storm Tracking
New forecast layout! Learn more

10-Day Weather Forecast

Advertisements
Track Severe Weather on mobile